sensor_id;sensor_type;location;lat;lon;timestamp;pressure;altitude;pressure_sealevel;temperature
71897;BMP280;59767;51.344;12.362;2023-05-14T00:00:02;162473.25;;;14.82
71897;BMP280;59767;51.344;12.362;2023-05-14T00:03:07;162473.25;;;14.82
71897;BMP280;59767;51.344;12.362;2023-05-14T00:06:12;162478.53;;;14.84
71897;BMP280;59767;51.344;12.362;2023-05-14T00:09:15;162488.97;;;14.88
71897;BMP280;59767;51.344;12.362;2023-05-14T00:12:19;162502.09;;;14.93
71897;BMP280;59767;51.344;12.362;2023-05-14T00:15:24;162504.75;;;14.94
71897;BMP280;59767;51.344;12.362;2023-05-14T00:18:28;162492.91;;;14.89
71897;BMP280;59767;51.344;12.362;2023-05-14T00:21:32;162467.97;;;14.80
71897;BMP280;59767;51.344;12.362;2023-05-14T00:24:36;162473.25;;;14.82
71897;BMP280;59767;51.344;12.362;2023-05-14T00:27:40;162481.13;;;14.85
71897;BMP280;59767;51.344;12.362;2023-05-14T00:30:44;162483.75;;;14.86
71897;BMP280;59767;51.344;12.362;2023-05-14T00:33:49;162457.53;;;14.76
71897;BMP280;59767;51.344;12.362;2023-05-14T00:36:53;162447.03;;;14.72
71897;BMP280;59767;51.344;12.362;2023-05-14T00:39:57;162440.47;;;14.69
71897;BMP280;59767;51.344;12.362;2023-05-14T00:43:01;162433.97;;;14.67
71897;BMP280;59767;51.344;12.362;2023-05-14T00:46:06;162443.09;;;14.70
71897;BMP280;59767;51.344;12.362;2023-05-14T00:49:11;162475.91;;;14.83
71897;BMP280;59767;51.344;12.362;2023-05-14T00:52:15;162465.41;;;14.79
71897;BMP280;59767;51.344;12.362;2023-05-14T00:55:20;162447.03;;;14.72
71897;BMP280;59767;51.344;12.362;2023-05-14T00:58:24;162440.47;;;14.69
71897;BMP280;59767;51.344;12.362;2023-05-14T01:01:29;162441.81;;;14.70
71897;BMP280;59767;51.344;12.362;2023-05-14T01:04:33;162431.31;;;14.66
71897;BMP280;59767;51.344;12.362;2023-05-14T01:07:47;162439.16;;;14.69
71897;BMP280;59767;51.344;12.362;2023-05-14T01:10:59;162432.66;;;14.66
71897;BMP280;59767;51.344;12.362;2023-05-14T01:17:45;162423.44;;;14.63
71897;BMP280;59767;51.344;12.362;2023-05-14T01:20:52;162428.69;;;14.65
71897;BMP280;59767;51.344;12.362;2023-05-14T01:23:56;162422.09;;;14.62
71897;BMP280;59767;51.344;12.362;2023-05-14T01:30:39;162416.91;;;14.60
71897;BMP280;59767;51.344;12.362;2023-05-14T01:33:47;162424.75;;;14.63
71897;BMP280;59767;51.344;12.362;2023-05-14T01:36:51;162409.03;;;14.57
71897;BMP280;59767;51.344;12.362;2023-05-14T01:39:57;162378.88;;;14.46
71897;BMP280;59767;51.344;12.362;2023-05-14T01:43:03;162382.81;;;14.47
71897;BMP280;59767;51.344;12.362;2023-05-14T01:46:08;162365.78;;;14.41
71897;BMP280;59767;51.344;12.362;2023-05-14T01:49:12;162377.56;;;14.45
71897;BMP280;59767;51.344;12.362;2023-05-14T01:52:16;162373.66;;;14.44
71897;BMP280;59767;51.344;12.362;2023-05-14T01:55:24;162377.56;;;14.45
71897;BMP280;59767;51.344;12.362;2023-05-14T01:58:28;162394.59;;;14.52
71897;BMP280;59767;51.344;12.362;2023-05-14T02:01:32;162376.22;;;14.45
71897;BMP280;59767;51.344;12.362;2023-05-14T02:04:36;162373.66;;;14.44
71897;BMP280;59767;51.344;12.362;2023-05-14T02:07:40;162377.56;;;14.45
71897;BMP280;59767;51.344;12.362;2023-05-14T02:10:44;162377.56;;;14.45
71897;BMP280;59767;51.344;12.362;2023-05-14T02:13:48;162381.50;;;14.47
71897;BMP280;59767;51.344;12.362;2023-05-14T02:16:53;162401.16;;;14.54
71897;BMP280;59767;51.344;12.362;2023-05-14T02:19:57;162414.25;;;14.59
71897;BMP280;59767;51.344;12.362;2023-05-14T02:23:01;162406.44;;;14.56
71897;BMP280;59767;51.344;12.362;2023-05-14T02:26:05;162406.44;;;14.56
71897;BMP280;59767;51.344;12.362;2023-05-14T02:29:09;162410.31;;;14.58
71897;BMP280;59767;51.344;12.362;2023-05-14T02:32:13;162405.16;;;14.56
71897;BMP280;59767;51.344;12.362;2023-05-14T02:35:17;162418.19;;;14.61
71897;BMP280;59767;51.344;12.362;2023-05-14T02:38:22;162405.16;;;14.56
71897;BMP280;59767;51.344;12.362;2023-05-14T02:41:26;162392.03;;;14.51
71897;BMP280;59767;51.344;12.362;2023-05-14T02:44:31;162376.22;;;14.45
71897;BMP280;59767;51.344;12.362;2023-05-14T02:47:35;162372.34;;;14.43
71897;BMP280;59767;51.344;12.362;2023-05-14T02:50:41;162373.66;;;14.44
71897;BMP280;59767;51.344;12.362;2023-05-14T02:53:45;162367.09;;;14.41
71897;BMP280;59767;51.344;12.362;2023-05-14T02:56:49;162359.28;;;14.38
71897;BMP280;59767;51.344;12.362;2023-05-14T02:59:53;162350.06;;;14.35
71897;BMP280;59767;51.344;12.362;2023-05-14T03:02:58;162325.19;;;14.25
71897;BMP280;59767;51.344;12.362;2023-05-14T03:06:03;162313.41;;;14.21
71897;BMP280;59767;51.344;12.362;2023-05-14T03:09:07;162321.25;;;14.24
71897;BMP280;59767;51.344;12.362;2023-05-14T03:12:11;162309.47;;;14.19
71897;BMP280;59767;51.344;12.362;2023-05-14T03:15:16;162309.47;;;14.19
71897;BMP280;59767;51.344;12.362;2023-05-14T03:18:21;162292.41;;;14.13
71897;BMP280;59767;51.344;12.362;2023-05-14T03:21:25;162288.47;;;14.11
71897;BMP280;59767;51.344;12.362;2023-05-14T03:24:30;162292.41;;;14.13
71897;BMP280;59767;51.344;12.362;2023-05-14T03:27:34;162298.97;;;14.15
71897;BMP280;59767;51.344;12.362;2023-05-14T03:30:38;162297.66;;;14.15
71897;BMP280;59767;51.344;12.362;2023-05-14T03:33:43;162295.03;;;14.14
71897;BMP280;59767;51.344;12.362;2023-05-14T03:36:47;162281.94;;;14.09
71897;BMP280;59767;51.344;12.362;2023-05-14T03:39:51;162279.31;;;14.08
71897;BMP280;59767;51.344;12.362;2023-05-14T03:42:55;162281.94;;;14.09
71897;BMP280;59767;51.344;12.362;2023-05-14T03:46:00;162268.78;;;14.04
71897;BMP280;59767;51.344;12.362;2023-05-14T03:49:05;162270.09;;;14.04
71897;BMP280;59767;51.344;12.362;2023-05-14T03:52:09;162276.66;;;14.07
71897;BMP280;59767;51.344;12.362;2023-05-14T03:55:13;162284.53;;;14.10
71897;BMP280;59767;51.344;12.362;2023-05-14T03:58:17;162276.66;;;14.07
71897;BMP280;59767;51.344;12.362;2023-05-14T04:01:21;162275.38;;;14.06
71897;BMP280;59767;51.344;12.362;2023-05-14T04:04:25;162275.38;;;14.06
71897;BMP280;59767;51.344;12.362;2023-05-14T04:07:29;162284.53;;;14.10
71897;BMP280;59767;51.344;12.362;2023-05-14T04:10:33;162276.66;;;14.07
71897;BMP280;59767;51.344;12.362;2023-05-14T04:13:37;162278.00;;;14.07
71897;BMP280;59767;51.344;12.362;2023-05-14T04:16:42;162288.47;;;14.11
71897;BMP280;59767;51.344;12.362;2023-05-14T04:19:45;162297.66;;;14.15
71897;BMP280;59767;51.344;12.362;2023-05-14T04:22:49;162310.75;;;14.20
71897;BMP280;59767;51.344;12.362;2023-05-14T04:25:53;162310.75;;;14.20
71897;BMP280;59767;51.344;12.362;2023-05-14T04:28:58;162330.41;;;14.27
71897;BMP280;59767;51.344;12.362;2023-05-14T04:32:06;162331.69;;;14.28
71897;BMP280;59767;51.344;12.362;2023-05-14T04:35:11;162330.41;;;14.27
71897;BMP280;59767;51.344;12.362;2023-05-14T04:38:15;162310.75;;;14.20
71897;BMP280;59767;51.344;12.362;2023-05-14T04:41:20;162317.31;;;14.22
71897;BMP280;59767;51.344;12.362;2023-05-14T04:44:24;162330.41;;;14.27
71897;BMP280;59767;51.344;12.362;2023-05-14T04:47:29;162314.69;;;14.21
71897;BMP280;59767;51.344;12.362;2023-05-14T04:50:33;162340.91;;;14.31
71897;BMP280;59767;51.344;12.362;2023-05-14T04:53:37;162360.56;;;14.39
71897;BMP280;59767;51.344;12.362;2023-05-14T04:56:42;162394.59;;;14.52
71897;BMP280;59767;51.344;12.362;2023-05-14T04:59:46;162420.88;;;14.62
71897;BMP280;59767;51.344;12.362;2023-05-14T05:02:50;162420.88;;;14.62
71897;BMP280;59767;51.344;12.362;2023-05-14T05:05:54;162443.09;;;14.70
71897;BMP280;59767;51.344;12.362;2023-05-14T05:08:58;162478.53;;;14.84
71897;BMP280;59767;51.344;12.362;2023-05-14T05:12:05;162511.28;;;14.96
71897;BMP280;59767;51.344;12.362;2023-05-14T05:15:09;162554.56;;;15.13
71897;BMP280;59767;51.344;12.362;2023-05-14T05:18:13;162567.63;;;15.18
71897;BMP280;59767;51.344;12.362;2023-05-14T05:21:18;162572.84;;;15.20
71897;BMP280;59767;51.344;12.362;2023-05-14T05:24:22;162532.25;;;15.04
71897;BMP280;59767;51.344;12.362;2023-05-14T05:27:26;162538.78;;;15.07
71897;BMP280;59767;51.344;12.362;2023-05-14T05:30:30;162538.78;;;15.07
71897;BMP280;59767;51.344;12.362;2023-05-14T05:33:34;162567.63;;;15.18
71897;BMP280;59767;51.344;12.362;2023-05-14T05:36:39;162592.53;;;15.27
71897;BMP280;59767;51.344;12.362;2023-05-14T05:39:42;162554.56;;;15.13
71897;BMP280;59767;51.344;12.362;2023-05-14T05:42:46;162566.34;;;15.17
71897;BMP280;59767;51.344;12.362;2023-05-14T05:45:50;162597.81;;;15.29
71897;BMP280;59767;51.344;12.362;2023-05-14T05:48:54;162600.41;;;15.30
71897;BMP280;59767;51.344;12.362;2023-05-14T05:51:58;162593.88;;;15.28
71897;BMP280;59767;51.344;12.362;2023-05-14T05:55:02;162621.41;;;15.38
71897;BMP280;59767;51.344;12.362;2023-05-14T05:58:06;162650.25;;;15.49
71897;BMP280;59767;51.344;12.362;2023-05-14T06:01:11;162647.59;;;15.48
71897;BMP280;59767;51.344;12.362;2023-05-14T06:04:15;162651.53;;;15.50
71897;BMP280;59767;51.344;12.362;2023-05-14T06:07:19;162692.16;;;15.65
71897;BMP280;59767;51.344;12.362;2023-05-14T06:10:23;162738.09;;;15.83
71897;BMP280;59767;51.344;12.362;2023-05-14T06:13:27;162753.88;;;15.89
71897;BMP280;59767;51.344;12.362;2023-05-14T06:16:32;162781.38;;;15.99
71897;BMP280;59767;51.344;12.362;2023-05-14T06:19:36;162783.94;;;16.00
71897;BMP280;59767;51.344;12.362;2023-05-14T06:22:40;162849.59;;;16.25
71897;BMP280;59767;51.344;12.362;2023-05-14T06:25:44;162858.72;;;16.29
71897;BMP280;59767;51.344;12.362;2023-05-14T06:28:48;162874.50;;;16.35
71897;BMP280;59767;51.344;12.362;2023-05-14T06:31:52;162852.16;;;16.26
71897;BMP280;59767;51.344;12.362;2023-05-14T06:34:57;162878.41;;;16.36
71897;BMP280;59767;51.344;12.362;2023-05-14T06:38:01;162884.97;;;16.39
71897;BMP280;59767;51.344;12.362;2023-05-14T06:41:05;162929.56;;;16.56
71897;BMP280;59767;51.344;12.362;2023-05-14T06:44:09;162953.22;;;16.65
71897;BMP280;59767;51.344;12.362;2023-05-14T06:47:14;162950.53;;;16.64
71897;BMP280;59767;51.344;12.362;2023-05-14T06:50:18;162991.25;;;16.79
71897;BMP280;59767;51.344;12.362;2023-05-14T06:53:22;162989.91;;;16.79
71897;BMP280;59767;51.344;12.362;2023-05-14T06:56:26;162992.53;;;16.80
71897;BMP280;59767;51.344;12.362;2023-05-14T06:59:30;163054.19;;;17.03
71897;BMP280;59767;51.344;12.362;2023-05-14T07:02:34;163092.22;;;17.18
71897;BMP280;59767;51.344;12.362;2023-05-14T07:05:38;163125.06;;;17.30
71897;BMP280;59767;51.344;12.362;2023-05-14T07:08:43;163186.75;;;17.54
71897;BMP280;59767;51.344;12.362;2023-05-14T07:11:50;163233.97;;;17.72
71897;BMP280;59767;51.344;12.362;2023-05-14T07:14:54;163287.78;;;17.92
71897;BMP280;59767;51.344;12.362;2023-05-14T07:17:59;163299.59;;;17.97
71897;BMP280;59767;51.344;12.362;2023-05-14T07:21:04;163324.53;;;18.06
71897;BMP280;59767;51.344;12.362;2023-05-14T07:24:09;163352.06;;;18.17
71897;BMP280;59767;51.344;12.362;2023-05-14T07:27:12;163390.16;;;18.31
71897;BMP280;59767;51.344;12.362;2023-05-14T07:30:16;163340.28;;;18.12
71897;BMP280;59767;51.344;12.362;2023-05-14T07:33:21;163387.50;;;18.30
71897;BMP280;59767;51.344;12.362;2023-05-14T07:36:25;163474.13;;;18.63
71897;BMP280;59767;51.344;12.362;2023-05-14T07:39:30;163483.31;;;18.67
71897;BMP280;59767;51.344;12.362;2023-05-14T07:42:34;163579.19;;;19.03
71897;BMP280;59767;51.344;12.362;2023-05-14T07:45:40;163627.81;;;19.22
71897;BMP280;59767;51.344;12.362;2023-05-14T07:48:44;163722.34;;;19.58
71897;BMP280;59767;51.344;12.362;2023-05-14T07:51:49;163848.41;;;20.05
71897;BMP280;59767;51.344;12.362;2023-05-14T07:54:53;164069.16;;;20.89
71897;BMP280;59767;51.344;12.362;2023-05-14T07:57:57;164471.28;;;22.42
71897;BMP280;59767;51.344;12.362;2023-05-14T08:01:01;164919.69;;;24.12
71897;BMP280;59767;51.344;12.362;2023-05-14T08:04:09;165326.25;;;25.66
71897;BMP280;59767;51.344;12.362;2023-05-14T08:07:18;165449.97;;;26.13
71897;BMP280;59767;51.344;12.362;2023-05-14T08:10:22;165644.81;;;26.87
71897;BMP280;59767;51.344;12.362;2023-05-14T08:13:26;165747.50;;;27.26
71897;BMP280;59767;51.344;12.362;2023-05-14T08:16:30;165619.78;;;26.77
71897;BMP280;59767;51.344;12.362;2023-05-14T08:19:34;165532.94;;;26.45
71897;BMP280;59767;51.344;12.362;2023-05-14T08:22:38;165635.56;;;26.83
71897;BMP280;59767;51.344;12.362;2023-05-14T08:25:42;165186.75;;;25.13
71897;BMP280;59767;51.344;12.362;2023-05-14T08:28:46;164743.47;;;23.45
71897;BMP280;59767;51.344;12.362;2023-05-14T08:31:50;164731.63;;;23.41
71897;BMP280;59767;51.344;12.362;2023-05-14T08:34:54;164985.50;;;24.37
71897;BMP280;59767;51.344;12.362;2023-05-14T08:37:59;165172.31;;;25.08
71897;BMP280;59767;51.344;12.362;2023-05-14T08:41:04;165099.94;;;24.81
71897;BMP280;59767;51.344;12.362;2023-05-14T08:44:25;165257.81;;;25.40
71897;BMP280;59767;51.344;12.362;2023-05-14T08:47:32;165224.94;;;25.28
71897;BMP280;59767;51.344;12.362;2023-05-14T08:50:36;164955.22;;;24.26
71897;BMP280;59767;51.344;12.362;2023-05-14T08:53:40;164984.16;;;24.37
71897;BMP280;59767;51.344;12.362;2023-05-14T08:56:44;165017.03;;;24.49
71897;BMP280;59767;51.344;12.362;2023-05-14T08:59:54;164650.09;;;23.10
71897;BMP280;59767;51.344;12.362;2023-05-14T09:02:59;164510.75;;;22.57
71897;BMP280;59767;51.344;12.362;2023-05-14T09:06:03;164663.28;;;23.15
71897;BMP280;59767;51.344;12.362;2023-05-14T09:09:08;164636.94;;;23.05
71897;BMP280;59767;51.344;12.362;2023-05-14T09:12:14;164554.13;;;22.73
71897;BMP280;59767;51.344;12.362;2023-05-14T09:15:19;164525.19;;;22.63
71897;BMP280;59767;51.344;12.362;2023-05-14T09:18:23;164646.13;;;23.08
71897;BMP280;59767;51.344;12.362;2023-05-14T09:21:29;164508.09;;;22.56
71897;BMP280;59767;51.344;12.362;2023-05-14T09:24:36;164477.84;;;22.45
71897;BMP280;59767;51.344;12.362;2023-05-14T09:27:45;164368.78;;;22.03
71897;BMP280;59767;51.344;12.362;2023-05-14T09:30:53;164258.38;;;21.61
71897;BMP280;59767;51.344;12.362;2023-05-14T09:33:58;164096.72;;;21.00
71897;BMP280;59767;51.344;12.362;2023-05-14T09:37:06;164079.66;;;20.93
71897;BMP280;59767;51.344;12.362;2023-05-14T09:40:12;164096.72;;;21.00
71897;BMP280;59767;51.344;12.362;2023-05-14T09:43:17;164056.00;;;20.84
71897;BMP280;59767;51.344;12.362;2023-05-14T09:46:21;164036.25;;;20.77
71897;BMP280;59767;51.344;12.362;2023-05-14T09:49:26;164015.28;;;20.69
71897;BMP280;59767;51.344;12.362;2023-05-14T09:52:31;164020.47;;;20.71
71897;BMP280;59767;51.344;12.362;2023-05-14T09:55:36;163992.94;;;20.60
71897;BMP280;59767;51.344;12.362;2023-05-14T09:58:41;163928.53;;;20.36
71897;BMP280;59767;51.344;12.362;2023-05-14T10:01:45;163886.50;;;20.20
71897;BMP280;59767;51.344;12.362;2023-05-14T10:04:53;163967.94;;;20.51
71897;BMP280;59767;51.344;12.362;2023-05-14T10:07:58;164003.41;;;20.64
71897;BMP280;59767;51.344;12.362;2023-05-14T10:11:06;164090.19;;;20.97
71897;BMP280;59767;51.344;12.362;2023-05-14T10:14:26;164077.00;;;20.92
71897;BMP280;59767;51.344;12.362;2023-05-14T10:17:33;163939.06;;;20.40
71897;BMP280;59767;51.344;12.362;2023-05-14T10:20:39;163943.03;;;20.41
71897;BMP280;59767;51.344;12.362;2023-05-14T10:23:44;163889.16;;;20.21
71897;BMP280;59767;51.344;12.362;2023-05-14T10:26:48;163886.50;;;20.20
71897;BMP280;59767;51.344;12.362;2023-05-14T10:29:54;163786.66;;;19.82
71897;BMP280;59767;51.344;12.362;2023-05-14T10:33:10;163834.00;;;20.00
71897;BMP280;59767;51.344;12.362;2023-05-14T10:36:14;163922.00;;;20.33
71897;BMP280;59767;51.344;12.362;2023-05-14T10:39:18;163953.50;;;20.45
71897;BMP280;59767;51.344;12.362;2023-05-14T10:42:41;163935.09;;;20.38
71897;BMP280;59767;51.344;12.362;2023-05-14T10:45:46;163889.16;;;20.21
71897;BMP280;59767;51.344;12.362;2023-05-14T10:48:51;163873.41;;;20.15
71897;BMP280;59767;51.344;12.362;2023-05-14T10:51:55;163856.34;;;20.08
71897;BMP280;59767;51.344;12.362;2023-05-14T10:55:01;163855.00;;;20.08
71897;BMP280;59767;51.344;12.362;2023-05-14T10:58:08;163914.09;;;20.30
71897;BMP280;59767;51.344;12.362;2023-05-14T11:01:12;163958.75;;;20.47
71897;BMP280;59767;51.344;12.362;2023-05-14T11:04:17;163923.28;;;20.34
71897;BMP280;59767;51.344;12.362;2023-05-14T11:07:33;163961.38;;;20.48
71897;BMP280;59767;51.344;12.362;2023-05-14T11:10:38;163958.75;;;20.47
71897;BMP280;59767;51.344;12.362;2023-05-14T11:13:42;163936.41;;;20.39
71897;BMP280;59767;51.344;12.362;2023-05-14T11:16:48;163940.34;;;20.40
71897;BMP280;59767;51.344;12.362;2023-05-14T11:19:53;163960.09;;;20.48
71897;BMP280;59767;51.344;12.362;2023-05-14T11:22:57;164048.13;;;20.81
71897;BMP280;59767;51.344;12.362;2023-05-14T11:26:01;164150.59;;;21.20
71897;BMP280;59767;51.344;12.362;2023-05-14T11:29:05;164161.13;;;21.24
71897;BMP280;59767;51.344;12.362;2023-05-14T11:32:09;164232.03;;;21.51
71897;BMP280;59767;51.344;12.362;2023-05-14T11:35:14;164205.81;;;21.41
71897;BMP280;59767;51.344;12.362;2023-05-14T11:38:19;164178.16;;;21.31
71897;BMP280;59767;51.344;12.362;2023-05-14T11:41:23;164203.13;;;21.40
71897;BMP280;59767;51.344;12.362;2023-05-14T11:44:30;164115.13;;;21.07
71897;BMP280;59767;51.344;12.362;2023-05-14T11:47:42;164019.19;;;20.70
71897;BMP280;59767;51.344;12.362;2023-05-14T11:50:49;163900.94;;;20.25
71897;BMP280;59767;51.344;12.362;2023-05-14T11:53:53;163874.69;;;20.15
71897;BMP280;59767;51.344;12.362;2023-05-14T11:57:00;163876.03;;;20.16
71897;BMP280;59767;51.344;12.362;2023-05-14T12:00:07;163864.19;;;20.11
71897;BMP280;59767;51.344;12.362;2023-05-14T12:03:11;163845.75;;;20.04
71897;BMP280;59767;51.344;12.362;2023-05-14T12:06:17;163814.25;;;19.92
71897;BMP280;59767;51.344;12.362;2023-05-14T12:09:21;163780.09;;;19.79
71897;BMP280;59767;51.344;12.362;2023-05-14T12:12:26;163805.06;;;19.89
71897;BMP280;59767;51.344;12.362;2023-05-14T12:15:30;163768.34;;;19.75
71897;BMP280;59767;51.344;12.362;2023-05-14T12:18:34;163719.69;;;19.56
71897;BMP280;59767;51.344;12.362;2023-05-14T12:21:39;163680.28;;;19.42
71897;BMP280;59767;51.344;12.362;2023-05-14T12:24:52;163633.00;;;19.24
71897;BMP280;59767;51.344;12.362;2023-05-14T12:27:56;163633.00;;;19.24
71897;BMP280;59767;51.344;12.362;2023-05-14T12:31:00;163627.81;;;19.22
71897;BMP280;59767;51.344;12.362;2023-05-14T12:34:04;163608.09;;;19.14
71897;BMP280;59767;51.344;12.362;2023-05-14T12:37:10;163639.63;;;19.26
71897;BMP280;59767;51.344;12.362;2023-05-14T12:40:14;163681.63;;;19.42
71897;BMP280;59767;51.344;12.362;2023-05-14T12:43:18;163719.69;;;19.56
71897;BMP280;59767;51.344;12.362;2023-05-14T12:46:26;163765.66;;;19.74
71897;BMP280;59767;51.344;12.362;2023-05-14T12:49:30;163763.03;;;19.73
71897;BMP280;59767;51.344;12.362;2023-05-14T12:52:34;163748.59;;;19.67
71897;BMP280;59767;51.344;12.362;2023-05-14T12:55:42;163751.22;;;19.68
71897;BMP280;59767;51.344;12.362;2023-05-14T12:58:46;163784.06;;;19.81
71897;BMP280;59767;51.344;12.362;2023-05-14T13:01:51;163839.22;;;20.02
71897;BMP280;59767;51.344;12.362;2023-05-14T13:04:55;163814.25;;;19.92
71897;BMP280;59767;51.344;12.362;2023-05-14T13:07:59;163841.84;;;20.03
71897;BMP280;59767;51.344;12.362;2023-05-14T13:11:06;163874.69;;;20.15
71897;BMP280;59767;51.344;12.362;2023-05-14T13:14:10;163865.47;;;20.12
71897;BMP280;59767;51.344;12.362;2023-05-14T13:17:14;163855.00;;;20.08
71897;BMP280;59767;51.344;12.362;2023-05-14T13:20:18;163794.59;;;19.85
71897;BMP280;59767;51.344;12.362;2023-05-14T13:23:23;163811.63;;;19.91
71897;BMP280;59767;51.344;12.362;2023-05-14T13:26:27;163801.16;;;19.87
71897;BMP280;59767;51.344;12.362;2023-05-14T13:29:31;163778.81;;;19.79
71897;BMP280;59767;51.344;12.362;2023-05-14T13:32:35;163739.41;;;19.64
71897;BMP280;59767;51.344;12.362;2023-05-14T13:35:39;163732.84;;;19.61
71897;BMP280;59767;51.344;12.362;2023-05-14T13:38:43;163692.09;;;19.46
71897;BMP280;59767;51.344;12.362;2023-05-14T13:41:48;163701.28;;;19.49
71897;BMP280;59767;51.344;12.362;2023-05-14T13:44:54;163680.28;;;19.42
71897;BMP280;59767;51.344;12.362;2023-05-14T13:47:58;163710.53;;;19.53
71897;BMP280;59767;51.344;12.362;2023-05-14T13:51:03;163713.09;;;19.54
71897;BMP280;59767;51.344;12.362;2023-05-14T13:54:06;163701.28;;;19.49
71897;BMP280;59767;51.344;12.362;2023-05-14T13:57:11;163676.38;;;19.40
71897;BMP280;59767;51.344;12.362;2023-05-14T14:00:16;163682.91;;;19.42
71897;BMP280;59767;51.344;12.362;2023-05-14T14:03:20;163696.06;;;19.48
71897;BMP280;59767;51.344;12.362;2023-05-14T14:06:25;163693.44;;;19.47
71897;BMP280;59767;51.344;12.362;2023-05-14T14:09:30;163701.28;;;19.49
71897;BMP280;59767;51.344;12.362;2023-05-14T14:12:37;163738.06;;;19.63
71897;BMP280;59767;51.344;12.362;2023-05-14T14:15:41;163782.72;;;19.80
71897;BMP280;59767;51.344;12.362;2023-05-14T14:18:46;163811.63;;;19.91
71897;BMP280;59767;51.344;12.362;2023-05-14T14:21:51;163816.88;;;19.93
71897;BMP280;59767;51.344;12.362;2023-05-14T14:24:55;163815.53;;;19.93
71897;BMP280;59767;51.344;12.362;2023-05-14T14:27:59;163841.84;;;20.03
71897;BMP280;59767;51.344;12.362;2023-05-14T14:31:04;163872.06;;;20.14
71897;BMP280;59767;51.344;12.362;2023-05-14T14:34:08;163832.66;;;19.99
71897;BMP280;59767;51.344;12.362;2023-05-14T14:37:12;163865.47;;;20.12
71897;BMP280;59767;51.344;12.362;2023-05-14T14:40:16;163874.69;;;20.15
71897;BMP280;59767;51.344;12.362;2023-05-14T14:43:20;163861.53;;;20.10
71897;BMP280;59767;51.344;12.362;2023-05-14T14:46:25;163860.25;;;20.10
71897;BMP280;59767;51.344;12.362;2023-05-14T14:49:29;163856.34;;;20.08
71897;BMP280;59767;51.344;12.362;2023-05-14T14:52:34;163827.41;;;19.97
71897;BMP280;59767;51.344;12.362;2023-05-14T14:55:39;163824.75;;;19.96
71897;BMP280;59767;51.344;12.362;2023-05-14T14:58:43;163805.06;;;19.89
71897;BMP280;59767;51.344;12.362;2023-05-14T15:01:48;163807.69;;;19.90
71897;BMP280;59767;51.344;12.362;2023-05-14T15:04:53;163795.88;;;19.85
71897;BMP280;59767;51.344;12.362;2023-05-14T15:07:57;163791.91;;;19.84
71897;BMP280;59767;51.344;12.362;2023-05-14T15:11:01;163810.34;;;19.91
71897;BMP280;59767;51.344;12.362;2023-05-14T15:14:05;163810.34;;;19.91
71897;BMP280;59767;51.344;12.362;2023-05-14T15:17:09;163802.44;;;19.88
71897;BMP280;59767;51.344;12.362;2023-05-14T15:20:14;163790.56;;;19.83
71897;BMP280;59767;51.344;12.362;2023-05-14T15:23:18;163819.56;;;19.94
71897;BMP280;59767;51.344;12.362;2023-05-14T15:26:22;163824.75;;;19.96
71897;BMP280;59767;51.344;12.362;2023-05-14T15:29:26;163776.19;;;19.78
71897;BMP280;59767;51.344;12.362;2023-05-14T15:32:32;163794.59;;;19.85
71897;BMP280;59767;51.344;12.362;2023-05-14T15:35:36;163820.84;;;19.95
71897;BMP280;59767;51.344;12.362;2023-05-14T15:38:40;163805.06;;;19.89
71897;BMP280;59767;51.344;12.362;2023-05-14T15:41:45;163820.84;;;19.95
71897;BMP280;59767;51.344;12.362;2023-05-14T15:44:48;163830.03;;;19.98
71897;BMP280;59767;51.344;12.362;2023-05-14T15:47:53;163816.88;;;19.93
71897;BMP280;59767;51.344;12.362;2023-05-14T15:50:57;163801.16;;;19.87
71897;BMP280;59767;51.344;12.362;2023-05-14T15:54:02;163782.72;;;19.80
71897;BMP280;59767;51.344;12.362;2023-05-14T15:57:06;163736.75;;;19.63
71897;BMP280;59767;51.344;12.362;2023-05-14T16:00:10;163732.84;;;19.61
71897;BMP280;59767;51.344;12.362;2023-05-14T16:03:16;163714.44;;;19.54
71897;BMP280;59767;51.344;12.362;2023-05-14T16:06:20;163656.66;;;19.33
71897;BMP280;59767;51.344;12.362;2023-05-14T16:09:25;163667.16;;;19.37
71897;BMP280;59767;51.344;12.362;2023-05-14T16:12:29;163664.56;;;19.36
71897;BMP280;59767;51.344;12.362;2023-05-14T16:15:33;163659.28;;;19.34
71897;BMP280;59767;51.344;12.362;2023-05-14T16:18:37;163648.81;;;19.30
71897;BMP280;59767;51.344;12.362;2023-05-14T16:21:43;163654.03;;;19.32
71897;BMP280;59767;51.344;12.362;2023-05-14T16:24:47;163652.75;;;19.31
71897;BMP280;59767;51.344;12.362;2023-05-14T16:27:51;163654.03;;;19.32
71897;BMP280;59767;51.344;12.362;2023-05-14T16:30:55;163651.44;;;19.31
71897;BMP280;59767;51.344;12.362;2023-05-14T16:33:59;163669.75;;;19.38
71897;BMP280;59767;51.344;12.362;2023-05-14T16:37:04;163652.75;;;19.31
71897;BMP280;59767;51.344;12.362;2023-05-14T16:40:09;163665.88;;;19.36
71897;BMP280;59767;51.344;12.362;2023-05-14T16:43:14;163643.56;;;19.28
71897;BMP280;59767;51.344;12.362;2023-05-14T16:46:18;163647.47;;;19.29
71897;BMP280;59767;51.344;12.362;2023-05-14T16:49:22;163682.91;;;19.42
71897;BMP280;59767;51.344;12.362;2023-05-14T16:52:26;163676.38;;;19.40
71897;BMP280;59767;51.344;12.362;2023-05-14T16:55:31;163669.75;;;19.38
71897;BMP280;59767;51.344;12.362;2023-05-14T16:58:35;163659.28;;;19.34
71897;BMP280;59767;51.344;12.362;2023-05-14T17:01:39;163669.75;;;19.38
71897;BMP280;59767;51.344;12.362;2023-05-14T17:04:44;163655.38;;;19.32
71897;BMP280;59767;51.344;12.362;2023-05-14T17:07:49;163630.41;;;19.23
71897;BMP280;59767;51.344;12.362;2023-05-14T17:10:53;163613.31;;;19.16
71897;BMP280;59767;51.344;12.362;2023-05-14T17:13:57;163585.81;;;19.06
71897;BMP280;59767;51.344;12.362;2023-05-14T17:17:01;163593.66;;;19.09
71897;BMP280;59767;51.344;12.362;2023-05-14T17:20:05;163589.72;;;19.07